Ragan Village, North Carolina
Current Conditions -  °F | °C
As of 2:54 PM on Friday 28 Nov 2014 (Local Time) from KAKH Reporting Station
Clear Clear  
Wind Chill: 46°   Ceiling: Unl
Heat Index: 46°   Visibility: 10mi
Dew Point: 17°   Wind: 0mph
Humidity: 31%   Direction: NA
Pressure: 30.29"   Gusts: NA
Location:  35.2631°N, 81.1487°W
Report Text: KAKH 281954Z AUTO 00000KT 10SM CLR 08/M08 A3029 RMK AO2 SLP262 T00781083
Loading
Personal Weather Stations






























Interactive Weather Map New forecast layout! Learn more

10-Day Weather Forecast

Advertisements
Track Severe Weather on mobile